sensor_id;sensor_type;location;lat;lon;timestamp;P1;durP1;ratioP1;P2;durP2;ratioP2
6388;SDS011;3227;42.654;23.360;2022-11-20T00:01:23;14.87;;;8.70;;
6388;SDS011;3227;42.654;23.360;2022-11-20T00:03:51;13.70;;;8.50;;
6388;SDS011;3227;42.654;23.360;2022-11-20T00:06:19;11.03;;;8.03;;
6388;SDS011;3227;42.654;23.360;2022-11-20T00:08:49;13.83;;;8.20;;
6388;SDS011;3227;42.654;23.360;2022-11-20T00:11:16;13.47;;;8.00;;
6388;SDS011;3227;42.654;23.360;2022-11-20T00:13:44;14.17;;;8.23;;
6388;SDS011;3227;42.654;23.360;2022-11-20T00:16:18;20.37;;;7.67;;
6388;SDS011;3227;42.654;23.360;2022-11-20T00:18:46;13.27;;;8.00;;
6388;SDS011;3227;42.654;23.360;2022-11-20T00:21:14;10.97;;;7.27;;
6388;SDS011;3227;42.654;23.360;2022-11-20T00:23:43;10.63;;;7.20;;
6388;SDS011;3227;42.654;23.360;2022-11-20T00:26:11;12.47;;;7.17;;
6388;SDS011;3227;42.654;23.360;2022-11-20T00:28:40;11.10;;;6.77;;
6388;SDS011;3227;42.654;23.360;2022-11-20T00:31:07;9.63;;;5.70;;
6388;SDS011;3227;42.654;23.360;2022-11-20T00:33:39;6.63;;;2.70;;
6388;SDS011;3227;42.654;23.360;2022-11-20T00:36:07;11.60;;;5.20;;
6388;SDS011;3227;42.654;23.360;2022-11-20T00:38:40;10.27;;;5.10;;
6388;SDS011;3227;42.654;23.360;2022-11-20T00:41:14;10.00;;;4.97;;
6388;SDS011;3227;42.654;23.360;2022-11-20T00:43:42;10.80;;;4.60;;
6388;SDS011;3227;42.654;23.360;2022-11-20T00:46:09;8.73;;;4.33;;
6388;SDS011;3227;42.654;23.360;2022-11-20T00:48:38;8.50;;;4.43;;
6388;SDS011;3227;42.654;23.360;2022-11-20T00:51:05;8.50;;;4.07;;
6388;SDS011;3227;42.654;23.360;2022-11-20T00:53:32;11.17;;;4.50;;
6388;SDS011;3227;42.654;23.360;2022-11-20T00:56:00;8.80;;;3.53;;
6388;SDS011;3227;42.654;23.360;2022-11-20T00:58:30;8.83;;;3.60;;
6388;SDS011;3227;42.654;23.360;2022-11-20T01:01:01;8.67;;;4.00;;
6388;SDS011;3227;42.654;23.360;2022-11-20T01:03:30;10.87;;;3.70;;
6388;SDS011;3227;42.654;23.360;2022-11-20T01:06:01;5.70;;;2.73;;
6388;SDS011;3227;42.654;23.360;2022-11-20T01:08:31;8.00;;;3.00;;
6388;SDS011;3227;42.654;23.360;2022-11-20T01:10:59;7.07;;;3.03;;
6388;SDS011;3227;42.654;23.360;2022-11-20T01:13:29;5.80;;;2.90;;
6388;SDS011;3227;42.654;23.360;2022-11-20T01:16:07;7.60;;;3.20;;
6388;SDS011;3227;42.654;23.360;2022-11-20T01:18:35;6.57;;;2.90;;
6388;SDS011;3227;42.654;23.360;2022-11-20T01:21:04;7.23;;;2.77;;
6388;SDS011;3227;42.654;23.360;2022-11-20T01:23:33;9.20;;;3.60;;
6388;SDS011;3227;42.654;23.360;2022-11-20T01:26:02;7.65;;;3.08;;
6388;SDS011;3227;42.654;23.360;2022-11-20T01:28:30;9.27;;;2.53;;
6388;SDS011;3227;42.654;23.360;2022-11-20T01:30:58;7.03;;;2.80;;
6388;SDS011;3227;42.654;23.360;2022-11-20T01:33:25;4.85;;;2.58;;
6388;SDS011;3227;42.654;23.360;2022-11-20T01:35:52;6.72;;;3.25;;
6388;SDS011;3227;42.654;23.360;2022-11-20T01:38:19;7.77;;;3.57;;
6388;SDS011;3227;42.654;23.360;2022-11-20T01:40:53;7.60;;;3.30;;
6388;SDS011;3227;42.654;23.360;2022-11-20T01:43:20;7.23;;;3.37;;
6388;SDS011;3227;42.654;23.360;2022-11-20T01:48:44;7.07;;;2.90;;
6388;SDS011;3227;42.654;23.360;2022-11-20T01:51:19;9.33;;;3.37;;
6388;SDS011;3227;42.654;23.360;2022-11-20T01:53:56;8.23;;;3.10;;
6388;SDS011;3227;42.654;23.360;2022-11-20T01:56:27;6.40;;;3.20;;
6388;SDS011;3227;42.654;23.360;2022-11-20T01:58:56;6.10;;;3.40;;
6388;SDS011;3227;42.654;23.360;2022-11-20T02:01:28;7.30;;;3.33;;
6388;SDS011;3227;42.654;23.360;2022-11-20T02:03:55;7.70;;;3.20;;
6388;SDS011;3227;42.654;23.360;2022-11-20T02:06:23;5.67;;;3.07;;
6388;SDS011;3227;42.654;23.360;2022-11-20T02:08:52;8.53;;;3.63;;
6388;SDS011;3227;42.654;23.360;2022-11-20T02:11:20;7.30;;;3.10;;
6388;SDS011;3227;42.654;23.360;2022-11-20T02:13:47;8.70;;;3.20;;
6388;SDS011;3227;42.654;23.360;2022-11-20T02:16:15;8.47;;;3.63;;
6388;SDS011;3227;42.654;23.360;2022-11-20T02:18:47;12.73;;;3.90;;
6388;SDS011;3227;42.654;23.360;2022-11-20T02:21:23;6.10;;;2.53;;
6388;SDS011;3227;42.654;23.360;2022-11-20T02:26:40;5.47;;;2.00;;
6388;SDS011;3227;42.654;23.360;2022-11-20T02:29:10;4.40;;;1.90;;
6388;SDS011;3227;42.654;23.360;2022-11-20T02:31:37;6.00;;;2.05;;
6388;SDS011;3227;42.654;23.360;2022-11-20T02:34:06;4.33;;;1.80;;
6388;SDS011;3227;42.654;23.360;2022-11-20T02:36:34;8.57;;;2.10;;
6388;SDS011;3227;42.654;23.360;2022-11-20T02:39:03;4.87;;;2.10;;
6388;SDS011;3227;42.654;23.360;2022-11-20T02:41:32;9.10;;;1.73;;
6388;SDS011;3227;42.654;23.360;2022-11-20T02:44:00;6.90;;;1.90;;
6388;SDS011;3227;42.654;23.360;2022-11-20T02:46:27;5.78;;;2.03;;
6388;SDS011;3227;42.654;23.360;2022-11-20T02:48:54;3.83;;;1.70;;
6388;SDS011;3227;42.654;23.360;2022-11-20T02:51:21;3.65;;;1.80;;
6388;SDS011;3227;42.654;23.360;2022-11-20T02:53:48;5.35;;;1.60;;
6388;SDS011;3227;42.654;23.360;2022-11-20T02:56:15;4.60;;;1.73;;
6388;SDS011;3227;42.654;23.360;2022-11-20T02:58:48;3.17;;;1.63;;
6388;SDS011;3227;42.654;23.360;2022-11-20T03:01:15;5.78;;;1.75;;
6388;SDS011;3227;42.654;23.360;2022-11-20T03:03:42;4.85;;;1.83;;
6388;SDS011;3227;42.654;23.360;2022-11-20T03:06:08;3.25;;;1.55;;
6388;SDS011;3227;42.654;23.360;2022-11-20T03:08:35;5.35;;;2.15;;
6388;SDS011;3227;42.654;23.360;2022-11-20T03:11:02;3.10;;;1.70;;
6388;SDS011;3227;42.654;23.360;2022-11-20T03:13:31;4.30;;;1.60;;
6388;SDS011;3227;42.654;23.360;2022-11-20T03:16:04;7.55;;;1.67;;
6388;SDS011;3227;42.654;23.360;2022-11-20T03:18:32;5.40;;;1.80;;
6388;SDS011;3227;42.654;23.360;2022-11-20T03:20:59;3.13;;;1.60;;
6388;SDS011;3227;42.654;23.360;2022-11-20T03:23:26;4.68;;;1.88;;
6388;SDS011;3227;42.654;23.360;2022-11-20T03:25:55;2.60;;;1.48;;
6388;SDS011;3227;42.654;23.360;2022-11-20T03:28:22;5.38;;;1.85;;
6388;SDS011;3227;42.654;23.360;2022-11-20T03:30:49;5.95;;;2.55;;
6388;SDS011;3227;42.654;23.360;2022-11-20T03:33:17;3.90;;;1.70;;
6388;SDS011;3227;42.654;23.360;2022-11-20T03:35:44;4.57;;;1.80;;
6388;SDS011;3227;42.654;23.360;2022-11-20T03:38:10;5.22;;;1.85;;
6388;SDS011;3227;42.654;23.360;2022-11-20T03:40:37;3.63;;;1.73;;
6388;SDS011;3227;42.654;23.360;2022-11-20T03:43:04;8.70;;;2.00;;
6388;SDS011;3227;42.654;23.360;2022-11-20T03:45:31;4.97;;;1.83;;
6388;SDS011;3227;42.654;23.360;2022-11-20T03:47:57;5.88;;;1.80;;
6388;SDS011;3227;42.654;23.360;2022-11-20T03:50:25;7.93;;;1.77;;
6388;SDS011;3227;42.654;23.360;2022-11-20T03:52:52;5.95;;;2.00;;
6388;SDS011;3227;42.654;23.360;2022-11-20T03:55:19;4.28;;;1.75;;
6388;SDS011;3227;42.654;23.360;2022-11-20T03:57:46;3.90;;;1.55;;
6388;SDS011;3227;42.654;23.360;2022-11-20T04:00:13;5.97;;;1.70;;
6388;SDS011;3227;42.654;23.360;2022-11-20T04:02:40;8.48;;;1.80;;
6388;SDS011;3227;42.654;23.360;2022-11-20T04:05:07;8.00;;;1.95;;
6388;SDS011;3227;42.654;23.360;2022-11-20T04:07:36;6.53;;;2.40;;
6388;SDS011;3227;42.654;23.360;2022-11-20T04:10:03;2.35;;;1.60;;
6388;SDS011;3227;42.654;23.360;2022-11-20T04:12:31;6.82;;;2.28;;
6388;SDS011;3227;42.654;23.360;2022-11-20T04:14:58;4.57;;;1.80;;
6388;SDS011;3227;42.654;23.360;2022-11-20T04:17:25;7.32;;;2.00;;
6388;SDS011;3227;42.654;23.360;2022-11-20T04:19:52;3.85;;;1.55;;
6388;SDS011;3227;42.654;23.360;2022-11-20T04:22:19;4.90;;;2.35;;
6388;SDS011;3227;42.654;23.360;2022-11-20T04:24:47;3.88;;;1.60;;
6388;SDS011;3227;42.654;23.360;2022-11-20T04:27:13;3.00;;;1.50;;
6388;SDS011;3227;42.654;23.360;2022-11-20T04:29:40;6.82;;;1.75;;
6388;SDS011;3227;42.654;23.360;2022-11-20T04:32:07;4.97;;;1.85;;
6388;SDS011;3227;42.654;23.360;2022-11-20T04:34:34;5.00;;;1.70;;
6388;SDS011;3227;42.654;23.360;2022-11-20T04:37:01;2.85;;;1.40;;
6388;SDS011;3227;42.654;23.360;2022-11-20T04:39:28;6.55;;;2.13;;
6388;SDS011;3227;42.654;23.360;2022-11-20T04:41:56;5.05;;;1.90;;
6388;SDS011;3227;42.654;23.360;2022-11-20T04:44:36;4.28;;;1.70;;
6388;SDS011;3227;42.654;23.360;2022-11-20T04:47:03;5.03;;;1.70;;
6388;SDS011;3227;42.654;23.360;2022-11-20T04:49:30;6.45;;;1.70;;
6388;SDS011;3227;42.654;23.360;2022-11-20T04:51:57;7.60;;;1.90;;
6388;SDS011;3227;42.654;23.360;2022-11-20T04:54:24;4.60;;;1.60;;
6388;SDS011;3227;42.654;23.360;2022-11-20T04:56:51;4.07;;;1.50;;
6388;SDS011;3227;42.654;23.360;2022-11-20T04:59:19;3.95;;;1.90;;
6388;SDS011;3227;42.654;23.360;2022-11-20T05:01:46;6.18;;;1.58;;
6388;SDS011;3227;42.654;23.360;2022-11-20T05:04:13;3.85;;;1.60;;
6388;SDS011;3227;42.654;23.360;2022-11-20T05:06:39;5.65;;;1.70;;
6388;SDS011;3227;42.654;23.360;2022-11-20T05:09:06;2.83;;;1.50;;
6388;SDS011;3227;42.654;23.360;2022-11-20T05:11:33;6.65;;;2.33;;
6388;SDS011;3227;42.654;23.360;2022-11-20T05:14:00;6.38;;;2.00;;
6388;SDS011;3227;42.654;23.360;2022-11-20T05:16:28;4.38;;;1.65;;
6388;SDS011;3227;42.654;23.360;2022-11-20T05:18:55;2.42;;;1.50;;
6388;SDS011;3227;42.654;23.360;2022-11-20T05:21:22;5.78;;;1.80;;
6388;SDS011;3227;42.654;23.360;2022-11-20T05:23:49;3.58;;;1.60;;
6388;SDS011;3227;42.654;23.360;2022-11-20T05:26:16;4.80;;;1.65;;
6388;SDS011;3227;42.654;23.360;2022-11-20T05:28:46;8.30;;;1.80;;
6388;SDS011;3227;42.654;23.360;2022-11-20T05:31:14;3.53;;;1.75;;
6388;SDS011;3227;42.654;23.360;2022-11-20T05:33:44;6.07;;;1.60;;
6388;SDS011;3227;42.654;23.360;2022-11-20T05:36:11;5.78;;;2.72;;
6388;SDS011;3227;42.654;23.360;2022-11-20T05:38:39;7.35;;;2.75;;
6388;SDS011;3227;42.654;23.360;2022-11-20T05:41:07;4.18;;;1.70;;
6388;SDS011;3227;42.654;23.360;2022-11-20T05:43:35;6.22;;;2.45;;
6388;SDS011;3227;42.654;23.360;2022-11-20T05:46:03;6.78;;;1.80;;
6388;SDS011;3227;42.654;23.360;2022-11-20T05:48:31;5.40;;;1.80;;
6388;SDS011;3227;42.654;23.360;2022-11-20T05:51:00;6.90;;;2.13;;
6388;SDS011;3227;42.654;23.360;2022-11-20T05:53:28;5.17;;;1.97;;
6388;SDS011;3227;42.654;23.360;2022-11-20T05:55:58;5.47;;;1.87;;
6388;SDS011;3227;42.654;23.360;2022-11-20T05:58:25;6.00;;;1.95;;
6388;SDS011;3227;42.654;23.360;2022-11-20T06:00:52;10.13;;;2.20;;
6388;SDS011;3227;42.654;23.360;2022-11-20T06:03:19;7.83;;;2.20;;
6388;SDS011;3227;42.654;23.360;2022-11-20T06:05:46;7.23;;;2.37;;
6388;SDS011;3227;42.654;23.360;2022-11-20T06:08:15;10.30;;;2.13;;
6388;SDS011;3227;42.654;23.360;2022-11-20T06:10:42;4.80;;;2.00;;
6388;SDS011;3227;42.654;23.360;2022-11-20T06:13:08;4.55;;;2.17;;
6388;SDS011;3227;42.654;23.360;2022-11-20T06:15:35;7.37;;;2.13;;
6388;SDS011;3227;42.654;23.360;2022-11-20T06:18:07;6.17;;;2.30;;
6388;SDS011;3227;42.654;23.360;2022-11-20T06:20:34;7.50;;;2.20;;
6388;SDS011;3227;42.654;23.360;2022-11-20T06:23:00;5.93;;;2.00;;
6388;SDS011;3227;42.654;23.360;2022-11-20T06:25:29;5.23;;;2.10;;
6388;SDS011;3227;42.654;23.360;2022-11-20T06:27:55;6.35;;;2.10;;
6388;SDS011;3227;42.654;23.360;2022-11-20T06:30:22;5.88;;;2.10;;
6388;SDS011;3227;42.654;23.360;2022-11-20T06:32:49;4.80;;;2.00;;
6388;SDS011;3227;42.654;23.360;2022-11-20T06:35:16;7.75;;;2.22;;
6388;SDS011;3227;42.654;23.360;2022-11-20T06:37:42;5.70;;;2.23;;
6388;SDS011;3227;42.654;23.360;2022-11-20T06:40:10;5.90;;;2.80;;
6388;SDS011;3227;42.654;23.360;2022-11-20T06:42:38;5.57;;;2.30;;
6388;SDS011;3227;42.654;23.360;2022-11-20T06:45:06;7.00;;;2.60;;
6388;SDS011;3227;42.654;23.360;2022-11-20T06:47:38;14.03;;;5.60;;
6388;SDS011;3227;42.654;23.360;2022-11-20T06:50:05;12.13;;;3.73;;
6388;SDS011;3227;42.654;23.360;2022-11-20T06:52:32;10.53;;;3.23;;
6388;SDS011;3227;42.654;23.360;2022-11-20T06:54:59;5.35;;;1.98;;
6388;SDS011;3227;42.654;23.360;2022-11-20T06:57:26;6.93;;;2.20;;
6388;SDS011;3227;42.654;23.360;2022-11-20T06:59:54;6.57;;;2.22;;
6388;SDS011;3227;42.654;23.360;2022-11-20T07:02:21;5.97;;;2.10;;
6388;SDS011;3227;42.654;23.360;2022-11-20T07:04:48;9.27;;;2.30;;
6388;SDS011;3227;42.654;23.360;2022-11-20T07:07:14;6.72;;;2.40;;
6388;SDS011;3227;42.654;23.360;2022-11-20T07:09:41;4.97;;;2.13;;
6388;SDS011;3227;42.654;23.360;2022-11-20T07:12:08;7.10;;;2.33;;
6388;SDS011;3227;42.654;23.360;2022-11-20T07:14:35;7.22;;;2.08;;
6388;SDS011;3227;42.654;23.360;2022-11-20T07:17:03;7.18;;;2.10;;
6388;SDS011;3227;42.654;23.360;2022-11-20T07:19:30;4.80;;;1.88;;
6388;SDS011;3227;42.654;23.360;2022-11-20T07:21:56;6.20;;;2.20;;
6388;SDS011;3227;42.654;23.360;2022-11-20T07:24:23;6.88;;;2.03;;
6388;SDS011;3227;42.654;23.360;2022-11-20T07:26:50;5.43;;;2.10;;
6388;SDS011;3227;42.654;23.360;2022-11-20T07:29:17;5.15;;;2.10;;
6388;SDS011;3227;42.654;23.360;2022-11-20T07:31:44;7.75;;;2.63;;
6388;SDS011;3227;42.654;23.360;2022-11-20T07:34:12;7.53;;;2.13;;
6388;SDS011;3227;42.654;23.360;2022-11-20T07:36:39;9.90;;;2.20;;
6388;SDS011;3227;42.654;23.360;2022-11-20T07:39:06;5.55;;;2.10;;
6388;SDS011;3227;42.654;23.360;2022-11-20T07:41:32;4.10;;;2.17;;
6388;SDS011;3227;42.654;23.360;2022-11-20T07:43:59;6.00;;;1.90;;
6388;SDS011;3227;42.654;23.360;2022-11-20T07:46:27;5.93;;;2.07;;
6388;SDS011;3227;42.654;23.360;2022-11-20T07:48:54;5.63;;;2.10;;
6388;SDS011;3227;42.654;23.360;2022-11-20T07:51:22;7.73;;;2.00;;
6388;SDS011;3227;42.654;23.360;2022-11-20T07:53:50;8.23;;;2.17;;
6388;SDS011;3227;42.654;23.360;2022-11-20T07:56:17;7.00;;;2.10;;
6388;SDS011;3227;42.654;23.360;2022-11-20T07:58:44;4.82;;;2.03;;
6388;SDS011;3227;42.654;23.360;2022-11-20T08:01:10;7.97;;;2.80;;
6388;SDS011;3227;42.654;23.360;2022-11-20T08:03:37;7.63;;;2.40;;
6388;SDS011;3227;42.654;23.360;2022-11-20T08:06:04;6.77;;;2.10;;
6388;SDS011;3227;42.654;23.360;2022-11-20T08:08:33;9.00;;;2.47;;
6388;SDS011;3227;42.654;23.360;2022-11-20T08:11:00;6.77;;;2.03;;
6388;SDS011;3227;42.654;23.360;2022-11-20T08:13:40;8.53;;;1.93;;
6388;SDS011;3227;42.654;23.360;2022-11-20T08:16:24;8.27;;;2.30;;
6388;SDS011;3227;42.654;23.360;2022-11-20T08:18:51;9.35;;;2.40;;
6388;SDS011;3227;42.654;23.360;2022-11-20T08:21:18;6.60;;;2.17;;
6388;SDS011;3227;42.654;23.360;2022-11-20T08:23:46;12.45;;;2.80;;
6388;SDS011;3227;42.654;23.360;2022-11-20T08:26:13;14.50;;;2.70;;
6388;SDS011;3227;42.654;23.360;2022-11-20T08:31:27;6.85;;;2.00;;
6388;SDS011;3227;42.654;23.360;2022-11-20T08:33:54;7.57;;;2.30;;
6388;SDS011;3227;42.654;23.360;2022-11-20T08:36:21;9.70;;;2.33;;
6388;SDS011;3227;42.654;23.360;2022-11-20T08:38:51;6.75;;;2.33;;
6388;SDS011;3227;42.654;23.360;2022-11-20T08:41:18;6.88;;;2.38;;
6388;SDS011;3227;42.654;23.360;2022-11-20T08:43:53;8.75;;;2.47;;
6388;SDS011;3227;42.654;23.360;2022-11-20T08:46:22;7.40;;;2.42;;
6388;SDS011;3227;42.654;23.360;2022-11-20T08:48:50;5.93;;;2.28;;
6388;SDS011;3227;42.654;23.360;2022-11-20T08:51:17;11.00;;;2.50;;
6388;SDS011;3227;42.654;23.360;2022-11-20T08:53:44;9.60;;;2.80;;
6388;SDS011;3227;42.654;23.360;2022-11-20T08:56:15;8.23;;;2.70;;
6388;SDS011;3227;42.654;23.360;2022-11-20T08:58:43;7.50;;;2.40;;
6388;SDS011;3227;42.654;23.360;2022-11-20T09:01:10;8.52;;;2.78;;
6388;SDS011;3227;42.654;23.360;2022-11-20T09:03:37;11.40;;;2.45;;
6388;SDS011;3227;42.654;23.360;2022-11-20T09:06:04;8.27;;;2.83;;
6388;SDS011;3227;42.654;23.360;2022-11-20T09:08:32;6.65;;;2.00;;
6388;SDS011;3227;42.654;23.360;2022-11-20T09:10:59;9.18;;;2.75;;
6388;SDS011;3227;42.654;23.360;2022-11-20T09:13:27;8.88;;;2.83;;
6388;SDS011;3227;42.654;23.360;2022-11-20T09:15:55;8.18;;;3.25;;
6388;SDS011;3227;42.654;23.360;2022-11-20T09:18:26;9.50;;;3.33;;
6388;SDS011;3227;42.654;23.360;2022-11-20T09:20:56;9.13;;;3.20;;
6388;SDS011;3227;42.654;23.360;2022-11-20T09:23:23;8.50;;;2.90;;
6388;SDS011;3227;42.654;23.360;2022-11-20T09:25:50;6.93;;;3.10;;
6388;SDS011;3227;42.654;23.360;2022-11-20T09:28:17;8.60;;;3.38;;
6388;SDS011;3227;42.654;23.360;2022-11-20T09:30:46;7.30;;;2.90;;
6388;SDS011;3227;42.654;23.360;2022-11-20T09:33:12;9.30;;;2.60;;
6388;SDS011;3227;42.654;23.360;2022-11-20T09:35:39;7.18;;;2.60;;
6388;SDS011;3227;42.654;23.360;2022-11-20T09:38:06;4.32;;;1.90;;
6388;SDS011;3227;42.654;23.360;2022-11-20T09:40:36;6.47;;;2.38;;
6388;SDS011;3227;42.654;23.360;2022-11-20T09:43:07;7.00;;;1.90;;
6388;SDS011;3227;42.654;23.360;2022-11-20T09:45:47;4.82;;;1.63;;
6388;SDS011;3227;42.654;23.360;2022-11-20T09:48:35;4.27;;;1.70;;
6388;SDS011;3227;42.654;23.360;2022-11-20T09:51:10;4.17;;;1.90;;
6388;SDS011;3227;42.654;23.360;2022-11-20T09:53:46;5.18;;;2.10;;
6388;SDS011;3227;42.654;23.360;2022-11-20T09:56:31;9.20;;;2.90;;
6388;SDS011;3227;42.654;23.360;2022-11-20T09:59:02;7.60;;;3.03;;
6388;SDS011;3227;42.654;23.360;2022-11-20T10:01:35;12.07;;;3.10;;
6388;SDS011;3227;42.654;23.360;2022-11-20T10:04:06;8.57;;;3.03;;
6388;SDS011;3227;42.654;23.360;2022-11-20T10:06:41;7.77;;;2.90;;
6388;SDS011;3227;42.654;23.360;2022-11-20T10:09:16;9.40;;;3.00;;
6388;SDS011;3227;42.654;23.360;2022-11-20T10:11:51;9.47;;;2.70;;
6388;SDS011;3227;42.654;23.360;2022-11-20T10:14:33;7.83;;;3.20;;
6388;SDS011;3227;42.654;23.360;2022-11-20T10:17:12;7.37;;;3.37;;
6388;SDS011;3227;42.654;23.360;2022-11-20T10:19:50;7.07;;;3.33;;
6388;SDS011;3227;42.654;23.360;2022-11-20T10:22:35;5.22;;;2.50;;
6388;SDS011;3227;42.654;23.360;2022-11-20T10:25:13;8.83;;;3.00;;
6388;SDS011;3227;42.654;23.360;2022-11-20T10:27:48;7.75;;;3.00;;
6388;SDS011;3227;42.654;23.360;2022-11-20T10:30:33;7.73;;;3.23;;
6388;SDS011;3227;42.654;23.360;2022-11-20T10:33:05;9.83;;;4.27;;
6388;SDS011;3227;42.654;23.360;2022-11-20T10:35:40;8.43;;;3.80;;
6388;SDS011;3227;42.654;23.360;2022-11-20T10:38:12;11.80;;;4.07;;
6388;SDS011;3227;42.654;23.360;2022-11-20T10:40:46;10.47;;;4.03;;
6388;SDS011;3227;42.654;23.360;2022-11-20T10:43:17;14.80;;;4.27;;
6388;SDS011;3227;42.654;23.360;2022-11-20T10:45:51;8.87;;;3.90;;
6388;SDS011;3227;42.654;23.360;2022-11-20T10:48:25;10.13;;;4.60;;
6388;SDS011;3227;42.654;23.360;2022-11-20T10:53:47;9.87;;;4.40;;
6388;SDS011;3227;42.654;23.360;2022-11-20T10:56:25;9.63;;;4.13;;
6388;SDS011;3227;42.654;23.360;2022-11-20T10:59:05;11.33;;;4.03;;
6388;SDS011;3227;42.654;23.360;2022-11-20T11:01:53;13.27;;;4.17;;
6388;SDS011;3227;42.654;23.360;2022-11-20T11:04:28;11.20;;;4.63;;
6388;SDS011;3227;42.654;23.360;2022-11-20T11:07:05;11.63;;;4.50;;
6388;SDS011;3227;42.654;23.360;2022-11-20T11:09:38;11.60;;;4.50;;
6388;SDS011;3227;42.654;23.360;2022-11-20T11:12:07;11.83;;;4.83;;
6388;SDS011;3227;42.654;23.360;2022-11-20T11:14:42;12.30;;;4.93;;
6388;SDS011;3227;42.654;23.360;2022-11-20T11:17:19;15.13;;;5.20;;
6388;SDS011;3227;42.654;23.360;2022-11-20T11:22:46;10.97;;;4.10;;
6388;SDS011;3227;42.654;23.360;2022-11-20T11:25:25;13.27;;;3.07;;
6388;SDS011;3227;42.654;23.360;2022-11-20T11:27:55;4.70;;;1.97;;
6388;SDS011;3227;42.654;23.360;2022-11-20T11:30:24;3.87;;;1.80;;
6388;SDS011;3227;42.654;23.360;2022-11-20T11:33:02;3.93;;;1.83;;
6388;SDS011;3227;42.654;23.360;2022-11-20T11:35:32;4.93;;;2.20;;
6388;SDS011;3227;42.654;23.360;2022-11-20T11:38:03;4.77;;;2.00;;
6388;SDS011;3227;42.654;23.360;2022-11-20T11:40:32;4.93;;;1.87;;
6388;SDS011;3227;42.654;23.360;2022-11-20T11:43:02;5.07;;;1.80;;
6388;SDS011;3227;42.654;23.360;2022-11-20T11:45:52;4.50;;;1.83;;
6388;SDS011;3227;42.654;23.360;2022-11-20T11:48:20;4.70;;;2.00;;
6388;SDS011;3227;42.654;23.360;2022-11-20T11:50:49;5.63;;;1.60;;
6388;SDS011;3227;42.654;23.360;2022-11-20T11:53:17;7.17;;;1.87;;
6388;SDS011;3227;42.654;23.360;2022-11-20T11:55:46;7.30;;;1.93;;
6388;SDS011;3227;42.654;23.360;2022-11-20T11:58:24;5.03;;;1.90;;
6388;SDS011;3227;42.654;23.360;2022-11-20T12:01:01;6.50;;;1.90;;
6388;SDS011;3227;42.654;23.360;2022-11-20T12:03:34;5.13;;;1.80;;
6388;SDS011;3227;42.654;23.360;2022-11-20T12:06:05;4.93;;;1.70;;
6388;SDS011;3227;42.654;23.360;2022-11-20T12:08:39;5.10;;;1.73;;
6388;SDS011;3227;42.654;23.360;2022-11-20T12:11:11;5.00;;;1.87;;
6388;SDS011;3227;42.654;23.360;2022-11-20T12:13:47;3.60;;;1.60;;
6388;SDS011;3227;42.654;23.360;2022-11-20T12:16:18;5.13;;;1.60;;
6388;SDS011;3227;42.654;23.360;2022-11-20T12:19:01;4.33;;;1.70;;
6388;SDS011;3227;42.654;23.360;2022-11-20T12:21:36;4.23;;;1.60;;
6388;SDS011;3227;42.654;23.360;2022-11-20T12:24:31;4.93;;;1.50;;
6388;SDS011;3227;42.654;23.360;2022-11-20T12:27:23;4.00;;;1.63;;
6388;SDS011;3227;42.654;23.360;2022-11-20T12:30:07;1.97;;;1.43;;
6388;SDS011;3227;42.654;23.360;2022-11-20T12:32:49;2.53;;;1.40;;
6388;SDS011;3227;42.654;23.360;2022-11-20T12:35:30;4.53;;;1.60;;
6388;SDS011;3227;42.654;23.360;2022-11-20T12:38:13;1.77;;;1.40;;
6388;SDS011;3227;42.654;23.360;2022-11-20T12:40:57;5.50;;;1.67;;
6388;SDS011;3227;42.654;23.360;2022-11-20T12:43:34;3.83;;;1.67;;
6388;SDS011;3227;42.654;23.360;2022-11-20T12:46:25;7.00;;;2.17;;
6388;SDS011;3227;42.654;23.360;2022-11-20T12:49:12;7.83;;;2.57;;
6388;SDS011;3227;42.654;23.360;2022-11-20T12:52:02;10.83;;;3.67;;
6388;SDS011;3227;42.654;23.360;2022-11-20T12:54:53;6.53;;;2.53;;
6388;SDS011;3227;42.654;23.360;2022-11-20T12:57:43;8.00;;;2.13;;
6388;SDS011;3227;42.654;23.360;2022-11-20T13:00:17;6.80;;;1.80;;
6388;SDS011;3227;42.654;23.360;2022-11-20T13:05:55;4.90;;;2.00;;
6388;SDS011;3227;42.654;23.360;2022-11-20T13:08:32;6.97;;;1.83;;
6388;SDS011;3227;42.654;23.360;2022-11-20T13:11:09;7.67;;;2.10;;
6388;SDS011;3227;42.654;23.360;2022-11-20T13:13:43;7.60;;;3.07;;
6388;SDS011;3227;42.654;23.360;2022-11-20T13:16:22;8.47;;;2.73;;
6388;SDS011;3227;42.654;23.360;2022-11-20T13:18:54;5.63;;;3.20;;
6388;SDS011;3227;42.654;23.360;2022-11-20T13:21:22;8.43;;;2.80;;
6388;SDS011;3227;42.654;23.360;2022-11-20T13:24:03;6.20;;;3.07;;
6388;SDS011;3227;42.654;23.360;2022-11-20T13:26:32;7.90;;;2.70;;
6388;SDS011;3227;42.654;23.360;2022-11-20T13:29:01;7.07;;;2.73;;
6388;SDS011;3227;42.654;23.360;2022-11-20T13:31:35;9.30;;;2.73;;
6388;SDS011;3227;42.654;23.360;2022-11-20T13:34:09;8.00;;;3.00;;
6388;SDS011;3227;42.654;23.360;2022-11-20T13:36:48;8.30;;;2.70;;
6388;SDS011;3227;42.654;23.360;2022-11-20T13:39:23;5.87;;;2.40;;
6388;SDS011;3227;42.654;23.360;2022-11-20T13:41:55;5.87;;;2.40;;
6388;SDS011;3227;42.654;23.360;2022-11-20T13:44:24;7.03;;;2.70;;
6388;SDS011;3227;42.654;23.360;2022-11-20T13:46:53;6.50;;;2.40;;
6388;SDS011;3227;42.654;23.360;2022-11-20T13:49:22;6.23;;;2.70;;
6388;SDS011;3227;42.654;23.360;2022-11-20T13:51:54;12.87;;;3.03;;
6388;SDS011;3227;42.654;23.360;2022-11-20T13:54:42;9.53;;;2.90;;
6388;SDS011;3227;42.654;23.360;2022-11-20T14:00:12;9.40;;;3.23;;
6388;SDS011;3227;42.654;23.360;2022-11-20T14:02:41;6.80;;;2.47;;
6388;SDS011;3227;42.654;23.360;2022-11-20T14:07:45;9.80;;;3.20;;
6388;SDS011;3227;42.654;23.360;2022-11-20T14:10:18;6.63;;;3.07;;
6388;SDS011;3227;42.654;23.360;2022-11-20T14:12:48;7.83;;;2.87;;
6388;SDS011;3227;42.654;23.360;2022-11-20T14:15:23;11.47;;;3.10;;
6388;SDS011;3227;42.654;23.360;2022-11-20T14:17:51;11.90;;;3.50;;
6388;SDS011;3227;42.654;23.360;2022-11-20T14:20:20;7.67;;;3.10;;
6388;SDS011;3227;42.654;23.360;2022-11-20T14:23:10;6.57;;;3.03;;
6388;SDS011;3227;42.654;23.360;2022-11-20T14:25:41;8.90;;;3.30;;
6388;SDS011;3227;42.654;23.360;2022-11-20T14:28:11;10.77;;;3.43;;
6388;SDS011;3227;42.654;23.360;2022-11-20T14:30:49;10.37;;;3.73;;
6388;SDS011;3227;42.654;23.360;2022-11-20T14:33:16;12.40;;;4.83;;
6388;SDS011;3227;42.654;23.360;2022-11-20T14:38:31;11.30;;;4.10;;
6388;SDS011;3227;42.654;23.360;2022-11-20T14:41:05;9.43;;;4.30;;
6388;SDS011;3227;42.654;23.360;2022-11-20T14:43:34;14.57;;;6.33;;
6388;SDS011;3227;42.654;23.360;2022-11-20T14:46:03;11.53;;;4.07;;
6388;SDS011;3227;42.654;23.360;2022-11-20T14:48:32;14.80;;;5.83;;
6388;SDS011;3227;42.654;23.360;2022-11-20T14:51:04;11.43;;;6.23;;
6388;SDS011;3227;42.654;23.360;2022-11-20T14:53:31;10.57;;;4.93;;
6388;SDS011;3227;42.654;23.360;2022-11-20T14:55:58;9.00;;;4.73;;
6388;SDS011;3227;42.654;23.360;2022-11-20T14:58:28;13.17;;;4.70;;
6388;SDS011;3227;42.654;23.360;2022-11-20T15:00:59;10.70;;;5.43;;
6388;SDS011;3227;42.654;23.360;2022-11-20T15:03:30;13.77;;;5.43;;
6388;SDS011;3227;42.654;23.360;2022-11-20T15:05:58;12.30;;;5.50;;
6388;SDS011;3227;42.654;23.360;2022-11-20T15:08:25;13.10;;;6.47;;
6388;SDS011;3227;42.654;23.360;2022-11-20T15:10:52;11.23;;;6.60;;
6388;SDS011;3227;42.654;23.360;2022-11-20T15:13:24;13.07;;;5.83;;
6388;SDS011;3227;42.654;23.360;2022-11-20T15:15:54;13.53;;;5.30;;
6388;SDS011;3227;42.654;23.360;2022-11-20T15:18:24;11.03;;;4.30;;
6388;SDS011;3227;42.654;23.360;2022-11-20T15:20:54;9.50;;;3.87;;
6388;SDS011;3227;42.654;23.360;2022-11-20T15:23:22;7.03;;;3.23;;
6388;SDS011;3227;42.654;23.360;2022-11-20T15:25:50;7.47;;;3.43;;
6388;SDS011;3227;42.654;23.360;2022-11-20T15:28:18;7.37;;;3.20;;
6388;SDS011;3227;42.654;23.360;2022-11-20T15:30:46;5.83;;;3.07;;
6388;SDS011;3227;42.654;23.360;2022-11-20T15:33:15;5.97;;;3.00;;
6388;SDS011;3227;42.654;23.360;2022-11-20T15:35:44;6.43;;;3.07;;
6388;SDS011;3227;42.654;23.360;2022-11-20T15:38:11;6.03;;;2.90;;
6388;SDS011;3227;42.654;23.360;2022-11-20T15:40:38;6.90;;;3.07;;
6388;SDS011;3227;42.654;23.360;2022-11-20T15:43:05;7.07;;;3.00;;